Time;durP1;ratioP1;P1;durP2;ratioP2;P2;SDS_P1;SDS_P2;PMS_P1;PMS_P2;Temp;Humidity;BMP_temperature;BMP_pressure;BME280_temperature;BME280_humidity;BME280_pressure;Samples;Min_cycle;Max_cycle;Signal;HPM_P1;HPM_P2
2022/08/22 00:02:29;;;;;;;;;;;21.80;79.30;;;;;;5079419;28;19944;-96
2022/08/22 00:05:09;;;;;;;;;;;21.80;80.30;;;;;;5078227;28;19992;-96
2022/08/22 00:07:35;;;;;;;;;;;21.70;80.50;;;;;;5079043;28;20018;-96
2022/08/22 00:10:15;;;;;;;;;;;21.70;81.10;;;;;;5079011;28;20068;-96
2022/08/22 00:12:40;;;;;;;;;;;21.80;80.50;;;;;;5079847;28;19990;-96
2022/08/22 00:15:32;;;;;;;;;;;21.70;80.60;;;;;;5079614;28;19985;-96
2022/08/22 00:18:18;;;;;;;;;;;21.60;80.50;;;;;;5059078;28;19997;-96
2022/08/22 00:20:47;;;;;;;;;;;21.60;80.30;;;;;;5078256;28;19946;-96
2022/08/22 00:23:21;;;;;;;;;;;21.70;80.60;;;;;;5060505;28;19970;-96
2022/08/22 00:26:05;;;;;;;;;;;21.80;80.60;;;;;;5079697;28;19939;-96
2022/08/22 00:28:37;;;;;;;;;;;21.80;80.40;;;;;;5077945;28;20408;-96
2022/08/22 00:31:08;;;;;;;;;;;21.80;80.20;;;;;;5078054;28;19963;-96
2022/08/22 00:33:40;;;;;;;;;;;21.80;81.60;;;;;;5077986;28;19941;-96
2022/08/22 00:36:24;;;;;;;;;;;21.70;82.10;;;;;;5077523;28;20040;-96
2022/08/22 00:39:06;;;;;;;;;;;21.50;82.40;;;;;;5077590;28;19940;-96
2022/08/22 00:41:54;;;;;;;;;;;21.50;82.20;;;;;;5077411;28;19954;-96
2022/08/22 00:44:38;;;;;;;;;;;21.50;82.20;;;;;;5059419;28;19952;-96
2022/08/22 00:47:23;;;;;;;;;;;21.50;82.20;;;;;;5058957;28;20022;-96
2022/08/22 00:50:01;;;;;;;;;;;21.40;82.00;;;;;;5058444;28;19956;-96
2022/08/22 00:52:26;;;;;;;;;;;21.40;82.90;;;;;;5058480;28;19950;-96
2022/08/22 00:55:01;;;;;;;;;;;21.30;83.20;;;;;;5058423;28;19944;-96
2022/08/22 00:57:26;;;;;;;;;;;21.30;83.80;;;;;;5076682;28;19944;-96
2022/08/22 01:00:07;;;;;;;;;;;21.20;83.90;;;;;;5076630;28;19936;-96
2022/08/22 01:02:45;;;;;;;;;;;21.30;83.50;;;;;;5077085;28;19945;-96
2022/08/22 01:05:14;;;;;;;;;;;21.20;83.20;;;;;;5076934;28;20034;-96
2022/08/22 01:07:48;;;;;;;;;;;21.40;82.90;;;;;;5058235;28;19947;-96
2022/08/22 01:10:17;;;;;;;;;;;21.40;83.00;;;;;;5076199;28;19978;-96
2022/08/22 01:13:05;;;;;;;;;;;21.20;83.60;;;;;;5075690;28;19964;-96
2022/08/22 01:15:34;;;;;;;;;;;20.90;85.20;;;;;;5056465;28;19947;-95
2022/08/22 01:18:02;;;;;;;;;;;20.50;86.40;;;;;;5076304;28;20034;-96
2022/08/22 01:20:46;;;;;;;;;;;20.50;86.60;;;;;;5057984;28;19968;-96
2022/08/22 01:23:31;;;;;;;;;;;20.50;86.80;;;;;;5075982;28;19938;-96
2022/08/22 01:26:25;;;;;;;;;;;20.70;86.30;;;;;;5076106;28;19996;-96
2022/08/22 01:28:50;;;;;;;;;;;20.80;84.90;;;;;;5057968;28;19965;-96
2022/08/22 01:31:16;;;;;;;;;;;21.00;84.60;;;;;;5075399;28;19962;-96
2022/08/22 01:34:00;;;;;;;;;;;21.00;84.20;;;;;;5058560;28;19944;-96
2022/08/22 01:36:45;;;;;;;;;;;21.00;84.10;;;;;;5076355;28;19951;-96
2022/08/22 01:39:10;;;;;;;;;;;20.90;84.50;;;;;;5057686;28;19953;-95
2022/08/22 01:41:52;;;;;;;;;;;20.80;85.20;;;;;;5075646;28;19949;-95
2022/08/22 01:44:33;;;;;;;;;;;20.80;85.90;;;;;;5058978;28;19951;-96
2022/08/22 01:46:58;;;;;;;;;;;20.50;85.90;;;;;;5078247;28;19937;-95
2022/08/22 01:49:27;;;;;;;;;;;20.50;85.60;;;;;;5059010;28;20039;-96
2022/08/22 01:51:55;;;;;;;;;;;20.60;85.80;;;;;;5077254;28;19953;-96
2022/08/22 01:54:21;;;;;;;;;;;20.50;86.00;;;;;;5077568;28;19991;-96
2022/08/22 01:56:46;;;;;;;;;;;20.60;86.00;;;;;;5075966;28;19940;-96
2022/08/22 01:59:19;;;;;;;;;;;20.60;86.10;;;;;;5074698;28;20083;-96
2022/08/22 02:01:52;;;;;;;;;;;20.50;86.10;;;;;;5075358;28;19940;-96
2022/08/22 02:04:41;;;;;;;;;;;20.50;86.40;;;;;;5075009;28;19943;-96
2022/08/22 02:07:06;;;;;;;;;;;20.50;86.20;;;;;;5075030;28;19943;-96
2022/08/22 02:09:38;;;;;;;;;;;20.50;85.90;;;;;;5056596;28;19992;-95
2022/08/22 02:12:09;;;;;;;;;;;20.60;85.70;;;;;;5056688;28;19946;-96
2022/08/22 02:14:42;;;;;;;;;;;20.60;85.60;;;;;;5074820;28;19964;-96
2022/08/22 02:17:43;;;;;;;;;;;20.50;85.90;;;;;;5074419;28;19941;-96
2022/08/22 02:20:16;;;;;;;;;;;20.40;86.10;;;;;;5032411;28;19946;-96
2022/08/22 02:22:58;;;;;;;;;;;20.30;86.50;;;;;;5050004;28;19956;-96
2022/08/22 02:25:31;;;;;;;;;;;20.30;86.80;;;;;;5074447;28;19935;-96
2022/08/22 02:28:08;;;;;;;;;;;20.30;86.50;;;;;;5074724;28;19995;-96
2022/08/22 02:30:49;;;;;;;;;;;20.30;86.30;;;;;;5074701;28;19960;-96
2022/08/22 02:33:21;;;;;;;;;;;20.30;86.00;;;;;;5074683;28;19942;-96
2022/08/22 02:35:50;;;;;;;;;;;20.30;86.20;;;;;;5075045;28;20393;-96
2022/08/22 02:38:18;;;;;;;;;;;20.40;85.90;;;;;;5074501;28;19938;-96
2022/08/22 02:40:44;;;;;;;;;;;20.50;85.80;;;;;;5056200;28;19944;-96
2022/08/22 02:43:16;;;;;;;;;;;20.50;86.00;;;;;;5074611;28;19942;-96
2022/08/22 02:46:08;;;;;;;;;;;20.50;85.70;;;;;;5074124;28;19985;-95
2022/08/22 02:48:52;;;;;;;;;;;20.50;85.60;;;;;;5071696;28;20427;-96
2022/08/22 02:51:18;;;;;;;;;;;20.40;86.20;;;;;;5074242;28;20000;-96
2022/08/22 02:53:46;;;;;;;;;;;20.40;86.20;;;;;;5073950;28;19991;-96
2022/08/22 02:56:13;;;;;;;;;;;20.30;86.60;;;;;;5074491;28;19983;-96
2022/08/22 02:59:10;;;;;;;;;;;20.30;87.10;;;;;;5073769;28;19992;-96
2022/08/22 03:01:37;;;;;;;;;;;20.20;87.20;;;;;;5074553;28;19947;-96
2022/08/22 03:04:22;;;;;;;;;;;20.10;87.10;;;;;;5074094;28;19946;-96
2022/08/22 03:07:06;;;;;;;;;;;20.00;87.40;;;;;;5056226;28;19939;-96
2022/08/22 03:09:37;;;;;;;;;;;19.90;88.00;;;;;;5074002;28;19936;-96
2022/08/22 03:12:15;;;;;;;;;;;19.90;88.10;;;;;;5073900;28;19970;-95
2022/08/22 03:14:48;;;;;;;;;;;19.90;88.10;;;;;;5075648;28;19990;-96
2022/08/22 03:17:15;;;;;;;;;;;19.90;88.10;;;;;;5057147;28;20044;-96
2022/08/22 03:19:46;;;;;;;;;;;19.90;88.10;;;;;;5075022;28;19937;-96
2022/08/22 03:22:24;;;;;;;;;;;19.90;87.90;;;;;;5074757;28;19937;-96
2022/08/22 03:25:06;;;;;;;;;;;20.00;88.00;;;;;;5075915;28;19944;-96
2022/08/22 03:27:38;;;;;;;;;;;20.00;87.80;;;;;;5074357;28;19981;-96
2022/08/22 03:30:04;;;;;;;;;;;20.20;87.50;;;;;;5074214;28;20385;-96
2022/08/22 03:32:50;;;;;;;;;;;20.30;87.20;;;;;;5073768;28;19968;-96
2022/08/22 03:35:31;;;;;;;;;;;20.30;86.70;;;;;;5073742;28;19941;-96
2022/08/22 03:38:10;;;;;;;;;;;20.20;86.80;;;;;;5074224;28;20305;-96
2022/08/22 03:40:41;;;;;;;;;;;20.20;87.00;;;;;;5073647;28;20030;-96
2022/08/22 03:43:39;;;;;;;;;;;20.10;87.10;;;;;;5073827;28;19938;-96
2022/08/22 03:46:21;;;;;;;;;;;20.20;87.20;;;;;;5033543;28;20271;-96
2022/08/22 03:48:50;;;;;;;;;;;20.10;87.30;;;;;;5073979;28;19940;-96
2022/08/22 03:51:18;;;;;;;;;;;20.00;87.40;;;;;;5073259;28;20413;-96
2022/08/22 03:53:43;;;;;;;;;;;19.80;87.90;;;;;;5074680;28;19967;-96
2022/08/22 03:56:18;;;;;;;;;;;19.80;88.10;;;;;;5076930;28;20024;-96
2022/08/22 03:59:03;;;;;;;;;;;19.80;88.30;;;;;;5076772;28;19946;-96
2022/08/22 04:01:47;;;;;;;;;;;19.80;88.20;;;;;;5077426;28;19963;-96
2022/08/22 04:04:33;;;;;;;;;;;19.80;88.10;;;;;;5076756;28;19986;-95
2022/08/22 04:07:10;;;;;;;;;;;19.80;88.10;;;;;;5055980;28;19944;-95
2022/08/22 04:09:39;;;;;;;;;;;19.80;88.20;;;;;;5078107;28;19939;-96
2022/08/22 04:12:16;;;;;;;;;;;19.80;88.10;;;;;;5077843;28;20457;-96
2022/08/22 04:14:42;;;;;;;;;;;19.80;87.70;;;;;;5078354;28;19940;-96
2022/08/22 04:17:26;;;;;;;;;;;19.80;87.80;;;;;;5078171;28;19943;-96
2022/08/22 04:20:10;;;;;;;;;;;19.80;87.60;;;;;;5077432;28;19944;-96
2022/08/22 04:22:42;;;;;;;;;;;19.80;87.60;;;;;;5077225;28;19937;-96
2022/08/22 04:25:10;;;;;;;;;;;19.70;87.80;;;;;;5077304;28;19940;-96
2022/08/22 04:27:54;;;;;;;;;;;19.70;87.70;;;;;;5088448;22;19981;-96
2022/08/22 04:30:28;;;;;;;;;;;19.70;87.60;;;;;;5083445;28;19965;-96
2022/08/22 04:33:05;;;;;;;;;;;19.70;87.50;;;;;;5082453;28;20026;-96
2022/08/22 04:35:34;;;;;;;;;;;19.70;87.50;;;;;;5064375;28;19947;-96
2022/08/22 04:38:11;;;;;;;;;;;19.80;87.60;;;;;;5064893;28;19941;-96
2022/08/22 04:40:46;;;;;;;;;;;19.80;87.20;;;;;;5064088;28;20321;-96
2022/08/22 04:43:21;;;;;;;;;;;19.90;87.10;;;;;;5081749;28;19950;-96
2022/08/22 04:45:54;;;;;;;;;;;19.90;87.60;;;;;;5063751;28;19996;-96
2022/08/22 04:48:28;;;;;;;;;;;20.00;87.50;;;;;;5081839;28;19943;-96
2022/08/22 04:50:59;;;;;;;;;;;19.90;87.90;;;;;;5081716;28;19964;-96
2022/08/22 04:53:36;;;;;;;;;;;19.90;88.10;;;;;;5081636;28;19974;-96
2022/08/22 04:56:06;;;;;;;;;;;19.90;88.00;;;;;;5063290;28;19992;-96
2022/08/22 04:58:38;;;;;;;;;;;19.90;88.10;;;;;;5080978;28;19941;-96
2022/08/22 05:01:10;;;;;;;;;;;20.00;88.10;;;;;;5081426;28;19939;-96
2022/08/22 05:03:38;;;;;;;;;;;20.10;87.80;;;;;;5081321;28;20039;-96
2022/08/22 05:06:05;;;;;;;;;;;20.20;87.70;;;;;;5080154;28;19941;-96
2022/08/22 05:08:32;;;;;;;;;;;20.10;87.30;;;;;;5075401;28;19939;-96
2022/08/22 05:10:59;;;;;;;;;;;20.10;87.50;;;;;;5061928;28;19966;-96
2022/08/22 05:13:35;;;;;;;;;;;20.10;87.70;;;;;;5061366;28;19942;-96
2022/08/22 05:16:03;;;;;;;;;;;20.10;87.70;;;;;;5078613;28;20407;-96
2022/08/22 05:18:34;;;;;;;;;;;20.10;87.70;;;;;;5077628;28;20038;-96
2022/08/22 05:21:01;;;;;;;;;;;20.20;87.90;;;;;;5078001;28;19939;-96
2022/08/22 05:23:26;;;;;;;;;;;20.20;87.60;;;;;;5080447;28;19961;-96
2022/08/22 05:25:54;;;;;;;;;;;20.30;88.10;;;;;;5068809;28;20437;-96
2022/08/22 05:28:30;;;;;;;;;;;20.30;88.20;;;;;;5070981;28;19980;-96
2022/08/22 05:30:56;;;;;;;;;;;20.40;87.50;;;;;;5086335;28;19966;-96
2022/08/22 05:33:31;;;;;;;;;;;20.50;87.10;;;;;;5067679;28;19951;-96
2022/08/22 05:36:00;;;;;;;;;;;20.60;86.80;;;;;;5088539;28;19939;-96
2022/08/22 05:38:28;;;;;;;;;;;20.70;86.40;;;;;;5071771;28;19942;-96
2022/08/22 05:40:58;;;;;;;;;;;20.80;85.00;;;;;;5073886;28;19944;-96
2022/08/22 05:43:25;;;;;;;;;;;20.90;84.20;;;;;;5063434;28;19946;-96
2022/08/22 05:45:52;;;;;;;;;;;21.10;83.90;;;;;;5068100;28;20048;-96
2022/08/22 05:48:19;;;;;;;;;;;21.30;83.10;;;;;;5068432;28;20010;-96
2022/08/22 05:50:53;;;;;;;;;;;21.40;82.40;;;;;;5071459;28;20339;-96
2022/08/22 05:53:39;;;;;;;;;;;21.50;82.30;;;;;;5089791;28;19990;-96
2022/08/22 05:56:13;;;;;;;;;;;21.50;82.00;;;;;;5072543;28;19947;-96
2022/08/22 05:58:42;;;;;;;;;;;21.50;82.40;;;;;;5086911;28;19946;-96
2022/08/22 06:01:07;;;;;;;;;;;21.60;82.10;;;;;;5079720;28;19942;-96
2022/08/22 06:03:39;;;;;;;;;;;21.60;81.70;;;;;;5082765;28;20482;-96
2022/08/22 06:06:12;;;;;;;;;;;21.60;81.30;;;;;;5065269;28;19954;-96
2022/08/22 06:11:19;;;;;;;;;;;21.70;81.20;;;;;;5070238;28;19978;-96
2022/08/22 06:13:51;;;;;;;;;;;21.80;80.70;;;;;;5057557;28;19949;-96
2022/08/22 06:16:48;;;;;;;;;;;21.80;80.90;;;;;;5076618;28;19944;-96
2022/08/22 06:19:22;;;;;;;;;;;21.80;80.60;;;;;;5059702;28;19954;-96
2022/08/22 06:21:49;;;;;;;;;;;21.90;80.10;;;;;;5059794;28;19944;-96
2022/08/22 06:24:20;;;;;;;;;;;21.90;78.90;;;;;;5056584;28;19946;-96
2022/08/22 06:26:50;;;;;;;;;;;22.00;78.50;;;;;;5041136;28;20025;-96
2022/08/22 06:29:20;;;;;;;;;;;22.10;78.70;;;;;;5040207;28;19952;-96
2022/08/22 06:31:47;;;;;;;;;;;22.20;78.40;;;;;;5058757;28;19950;-96
2022/08/22 06:34:16;;;;;;;;;;;22.30;78.20;;;;;;5056293;28;19945;-96
2022/08/22 06:36:44;;;;;;;;;;;22.40;77.70;;;;;;5052844;28;20447;-96
2022/08/22 06:39:11;;;;;;;;;;;22.70;76.80;;;;;;5053245;28;19945;-96
2022/08/22 06:41:41;;;;;;;;;;;22.80;76.10;;;;;;5052948;28;19956;-96
2022/08/22 06:44:09;;;;;;;;;;;22.90;75.30;;;;;;5051893;28;19945;-96
2022/08/22 06:46:36;;;;;;;;;;;23.00;74.10;;;;;;5054606;28;19982;-96
2022/08/22 06:49:04;;;;;;;;;;;23.10;73.70;;;;;;5052844;28;19944;-96
2022/08/22 06:51:39;;;;;;;;;;;23.20;73.80;;;;;;5074771;28;19966;-96
2022/08/22 06:54:19;;;;;;;;;;;23.20;74.30;;;;;;5058568;28;19940;-96
2022/08/22 06:56:48;;;;;;;;;;;23.20;73.80;;;;;;5051137;28;19947;-96
2022/08/22 06:59:18;;;;;;;;;;;23.20;73.80;;;;;;5059070;28;19945;-96
2022/08/22 07:02:22;;;;;;;;;;;23.30;73.40;;;;;;5074908;28;19944;-96
2022/08/22 07:04:58;;;;;;;;;;;23.30;72.90;;;;;;5077272;28;19998;-96
2022/08/22 07:07:29;;;;;;;;;;;23.40;72.60;;;;;;5072012;28;19949;-96
2022/08/22 07:32:55;;;;;;;;;;;24.00;68.50;;;;;;5579427;22;19959;-96
2022/08/22 09:36:01;;;;;;;;;;;27.10;55.00;;;;;;6010178;23;20228;-96
2022/08/22 09:38:41;;;;;;;;;;;27.20;55.10;;;;;;5039012;28;19967;-96
2022/08/22 09:44:09;;;;;;;;;;;27.30;53.60;;;;;;5670735;23;19983;-96
2022/08/22 09:46:49;;;;;;;;;;;27.40;51.90;;;;;;4998753;28;19944;-96
2022/08/22 09:49:34;;;;;;;;;;;27.50;49.50;;;;;;4983422;28;19934;-96
2022/08/22 09:52:23;;;;;;;;;;;27.50;49.30;;;;;;4998939;28;19971;-96
2022/08/22 09:55:24;;;;;;;;;;;27.50;51.40;;;;;;4999381;28;19924;-96
2022/08/22 09:58:04;;;;;;;;;;;27.60;51.90;;;;;;5000767;28;19947;-96
2022/08/22 10:00:46;;;;;;;;;;;27.70;47.90;;;;;;4999594;28;19924;-96
2022/08/22 10:03:38;;;;;;;;;;;27.70;48.30;;;;;;4998744;28;19926;-96
2022/08/22 10:06:30;;;;;;;;;;;27.70;46.40;;;;;;4991709;28;19936;-96
2022/08/22 10:09:28;;;;;;;;;;;27.80;47.00;;;;;;4999110;28;19970;-96
2022/08/22 10:12:07;;;;;;;;;;;27.80;47.60;;;;;;4999003;28;19962;-96
2022/08/22 10:15:07;;;;;;;;;;;27.90;48.30;;;;;;4999606;28;19974;-96
2022/08/22 10:18:01;;;;;;;;;;;27.90;47.00;;;;;;5000330;28;19946;-96
2022/08/22 10:20:45;;;;;;;;;;;28.00;47.90;;;;;;5011303;28;19931;-96
2022/08/22 10:23:37;;;;;;;;;;;28.00;45.40;;;;;;5004337;28;19952;-96
2022/08/22 10:47:35;;;;;;;;;;;28.70;43.30;;;;;;5055702;23;19979;-96
2022/08/22 10:50:27;;;;;;;;;;;28.70;42.40;;;;;;5037833;28;19934;-96
2022/08/22 10:53:32;;;;;;;;;;;28.70;42.80;;;;;;5036233;28;19956;-96
2022/08/22 10:56:16;;;;;;;;;;;28.60;42.40;;;;;;5037080;28;19953;-96
2022/08/22 10:58:56;;;;;;;;;;;28.70;42.40;;;;;;5053468;28;19935;-96
2022/08/22 11:01:49;;;;;;;;;;;28.70;41.20;;;;;;5038066;28;19934;-96
2022/08/22 11:04:45;;;;;;;;;;;28.80;40.00;;;;;;5044656;28;19936;-96
2022/08/22 11:07:18;;;;;;;;;;;29.00;39.60;;;;;;5060634;28;19985;-96
2022/08/22 12:20:47;;;;;;;;;;;34.10;28.80;;;;;;6173093;22;20047;-96
2022/08/22 12:23:49;;;;;;;;;;;34.20;28.60;;;;;;5079199;28;19954;-96
2022/08/22 12:26:16;;;;;;;;;;;34.20;29.40;;;;;;5009931;28;20322;-96
2022/08/22 12:28:48;;;;;;;;;;;34.20;26.60;;;;;;5021331;28;19943;-96
2022/08/22 12:31:28;;;;;;;;;;;33.70;26.40;;;;;;5021694;28;20035;-96
2022/08/22 12:34:06;;;;;;;;;;;33.20;27.00;;;;;;5019576;28;19958;-96
2022/08/22 12:36:44;;;;;;;;;;;33.40;27.80;;;;;;5026415;28;19952;-96
2022/08/22 12:39:34;;;;;;;;;;;33.30;29.20;;;;;;5037809;28;19960;-96
2022/08/22 12:42:10;;;;;;;;;;;33.20;29.30;;;;;;5037978;28;20016;-96
2022/08/22 12:44:44;;;;;;;;;;;33.50;30.10;;;;;;5021492;28;20007;-96
2022/08/22 12:47:18;;;;;;;;;;;33.40;28.50;;;;;;5014429;28;19986;-96
2022/08/22 12:50:02;;;;;;;;;;;34.40;27.40;;;;;;5012737;28;19947;-96
2022/08/22 12:52:47;;;;;;;;;;;35.10;26.70;;;;;;5014751;28;19961;-96
2022/08/22 12:55:20;;;;;;;;;;;35.10;26.70;;;;;;5011900;28;19989;-96
2022/08/22 12:57:55;;;;;;;;;;;35.30;26.90;;;;;;5011284;28;19947;-96
2022/08/22 13:00:39;;;;;;;;;;;36.20;26.90;;;;;;5012150;28;20005;-96
2022/08/22 13:03:09;;;;;;;;;;;37.10;23.70;;;;;;5029253;28;19954;-96
2022/08/22 13:05:36;;;;;;;;;;;37.80;23.50;;;;;;5072651;28;19948;-96
2022/08/22 13:08:04;;;;;;;;;;;38.10;25.00;;;;;;5073137;28;19954;-96
2022/08/22 13:10:30;;;;;;;;;;;38.20;24.60;;;;;;5072801;28;19966;-96
2022/08/22 13:12:56;;;;;;;;;;;39.30;24.30;;;;;;5068797;28;19942;-96
2022/08/22 13:15:28;;;;;;;;;;;39.70;24.60;;;;;;5058625;28;19940;-96
2022/08/22 13:17:54;;;;;;;;;;;40.40;24.00;;;;;;5057225;28;19944;-96
2022/08/22 13:20:27;;;;;;;;;;;39.80;23.80;;;;;;5056156;28;20414;-96
2022/08/22 13:22:53;;;;;;;;;;;38.80;23.70;;;;;;5055467;28;19991;-96
2022/08/22 13:25:22;;;;;;;;;;;38.60;23.80;;;;;;5060057;28;20402;-96
2022/08/22 13:27:49;;;;;;;;;;;38.60;24.20;;;;;;5067797;28;20309;-96
2022/08/22 13:30:21;;;;;;;;;;;38.20;25.80;;;;;;5070998;28;19963;-96
2022/08/22 13:32:49;;;;;;;;;;;38.30;24.70;;;;;;5068332;28;20003;-96
2022/08/22 16:42:18;;;;;;;;;;;34.80;27.00;;;;;;5659171;22;19980;-96
2022/08/22 16:44:46;;;;;;;;;;;34.40;26.60;;;;;;5102920;28;19959;-96
2022/08/22 16:47:40;;;;;;;;;;;33.90;26.60;;;;;;5120696;28;19947;-96
2022/08/22 16:50:26;;;;;;;;;;;33.70;27.50;;;;;;5107977;28;19929;-96
2022/08/22 17:34:58;;;;;;;;;;;31.20;37.40;;;;;;5077422;28;19965;-96
2022/08/22 17:37:40;;;;;;;;;;;31.00;39.50;;;;;;5062043;28;19958;-96
2022/08/22 17:40:57;;;;;;;;;;;30.70;45.90;;;;;;5062315;28;19955;-96
2022/08/22 18:20:08;;;;;;;;;;;28.30;54.50;;;;;;5389601;22;19984;-96
2022/08/22 18:23:08;;;;;;;;;;;28.20;55.10;;;;;;5098870;28;19980;-96
2022/08/22 18:25:56;;;;;;;;;;;28.10;55.20;;;;;;5079430;28;19936;-96
2022/08/22 18:31:28;;;;;;;;;;;28.00;55.90;;;;;;5603590;22;19961;-96
2022/08/22 18:34:00;;;;;;;;;;;27.90;56.10;;;;;;5101763;28;19939;-96
2022/08/22 18:36:36;;;;;;;;;;;27.80;56.70;;;;;;5084510;28;19971;-96
2022/08/22 18:39:31;;;;;;;;;;;27.80;56.90;;;;;;5117434;28;19983;-96
2022/08/22 18:42:09;;;;;;;;;;;27.70;57.40;;;;;;5117383;28;19946;-96
2022/08/22 18:44:47;;;;;;;;;;;27.70;57.30;;;;;;5118719;28;19929;-96
2022/08/22 18:47:24;;;;;;;;;;;27.50;57.90;;;;;;5116701;28;19971;-96
2022/08/22 18:49:53;;;;;;;;;;;27.40;58.30;;;;;;5083638;28;19944;-96
2022/08/22 18:52:27;;;;;;;;;;;27.30;58.90;;;;;;5116849;28;19993;-96
2022/08/22 18:55:01;;;;;;;;;;;27.20;59.10;;;;;;5100166;28;19932;-96
2022/08/22 18:57:41;;;;;;;;;;;27.20;59.10;;;;;;5118848;28;19934;-96
2022/08/22 19:00:20;;;;;;;;;;;27.20;59.60;;;;;;5118869;28;19965;-96
2022/08/22 19:02:57;;;;;;;;;;;27.20;59.70;;;;;;5100667;28;19932;-97
2022/08/22 19:05:40;;;;;;;;;;;27.10;60.10;;;;;;5101043;28;19930;-96
2022/08/22 19:08:15;;;;;;;;;;;27.00;59.90;;;;;;5118692;28;19948;-96
2022/08/22 19:11:01;;;;;;;;;;;27.00;60.40;;;;;;5116309;28;19975;-96
2022/08/22 19:13:31;;;;;;;;;;;27.00;60.60;;;;;;5100831;28;19940;-96
2022/08/22 19:16:04;;;;;;;;;;;26.80;60.90;;;;;;5118702;28;19931;-96
2022/08/22 19:18:49;;;;;;;;;;;26.80;61.30;;;;;;5097247;28;19933;-96
2022/08/22 19:24:37;;;;;;;;;;;26.70;62.10;;;;;;5098810;28;19959;-96
2022/08/22 19:27:22;;;;;;;;;;;26.50;62.80;;;;;;5083998;28;19965;-96
2022/08/22 19:29:56;;;;;;;;;;;26.50;63.10;;;;;;5083734;28;19945;-96
2022/08/22 19:32:42;;;;;;;;;;;26.40;63.00;;;;;;5083885;28;19957;-96
2022/08/22 19:35:30;;;;;;;;;;;26.40;62.80;;;;;;5088906;28;19943;-96
2022/08/22 19:38:04;;;;;;;;;;;26.40;62.80;;;;;;5104513;28;19933;-96
2022/08/22 19:40:56;;;;;;;;;;;26.40;62.90;;;;;;5104288;28;19981;-96
2022/08/22 19:43:26;;;;;;;;;;;26.30;63.70;;;;;;5103972;28;19957;-96
2022/08/22 19:45:56;;;;;;;;;;;26.10;66.00;;;;;;5121207;28;19948;-96
2022/08/22 19:48:30;;;;;;;;;;;26.00;67.70;;;;;;5103798;28;19946;-96
2022/08/22 19:51:08;;;;;;;;;;;25.80;68.60;;;;;;5103765;28;19956;-96
2022/08/22 19:53:47;;;;;;;;;;;25.70;69.90;;;;;;5121130;28;19935;-96
2022/08/22 19:56:22;;;;;;;;;;;25.40;70.40;;;;;;5121532;28;19953;-96
2022/08/22 19:59:14;;;;;;;;;;;25.40;69.80;;;;;;5100447;28;20439;-96
2022/08/22 20:02:05;;;;;;;;;;;25.30;69.80;;;;;;5101566;28;20012;-96
2022/08/22 20:04:37;;;;;;;;;;;25.20;70.40;;;;;;5101909;28;19943;-96
2022/08/22 20:07:03;;;;;;;;;;;25.00;70.40;;;;;;5101696;28;19941;-96
2022/08/22 20:09:48;;;;;;;;;;;25.00;70.00;;;;;;5101758;28;19940;-96
2022/08/22 20:12:36;;;;;;;;;;;25.10;69.70;;;;;;5102780;28;19967;-96
2022/08/22 20:15:35;;;;;;;;;;;25.00;69.80;;;;;;5104591;28;20400;-96
2022/08/22 20:18:10;;;;;;;;;;;25.00;70.30;;;;;;5117389;28;19940;-96
2022/08/22 20:20:38;;;;;;;;;;;24.80;70.80;;;;;;5119380;28;20005;-96
2022/08/22 20:23:07;;;;;;;;;;;24.70;71.40;;;;;;5101058;28;19945;-96
2022/08/22 20:25:44;;;;;;;;;;;24.60;71.90;;;;;;5118460;28;19970;-96
2022/08/22 20:28:28;;;;;;;;;;;24.50;72.50;;;;;;5119396;28;20006;-96
2022/08/22 20:30:59;;;;;;;;;;;24.40;73.80;;;;;;5099653;28;19979;-96
2022/08/22 20:33:31;;;;;;;;;;;24.20;74.60;;;;;;5100741;28;19971;-96
2022/08/22 20:36:01;;;;;;;;;;;23.80;75.60;;;;;;5098349;28;19999;-96
2022/08/22 20:38:34;;;;;;;;;;;23.60;76.60;;;;;;5099497;28;19982;-96
2022/08/22 20:41:19;;;;;;;;;;;23.40;77.40;;;;;;5097260;28;19940;-96
2022/08/22 20:43:56;;;;;;;;;;;23.50;77.40;;;;;;5099566;28;19942;-97
2022/08/22 20:46:41;;;;;;;;;;;23.60;77.10;;;;;;5097631;28;19975;-96
2022/08/22 20:49:16;;;;;;;;;;;23.60;77.10;;;;;;5096767;28;19943;-96
2022/08/22 20:51:50;;;;;;;;;;;23.50;77.20;;;;;;5097411;28;20017;-96
2022/08/22 20:54:21;;;;;;;;;;;23.60;77.30;;;;;;5097832;28;19949;-97
2022/08/22 20:56:51;;;;;;;;;;;23.80;77.20;;;;;;5096833;28;19929;-96
2022/08/22 20:59:52;;;;;;;;;;;23.70;77.20;;;;;;5097711;28;19951;-96
2022/08/22 21:02:20;;;;;;;;;;;23.50;78.40;;;;;;5083272;28;20396;-96
2022/08/22 21:04:51;;;;;;;;;;;23.40;79.50;;;;;;5094996;28;19943;-96
2022/08/22 21:07:26;;;;;;;;;;;23.40;79.50;;;;;;5095428;28;19954;-96
2022/08/22 21:12:42;;;;;;;;;;;23.30;79.20;;;;;;5097832;28;19958;-96
2022/08/22 21:15:13;;;;;;;;;;;23.40;78.50;;;;;;5098347;28;19941;-96
2022/08/22 21:17:41;;;;;;;;;;;23.50;78.70;;;;;;5098188;28;19982;-96
2022/08/22 21:20:20;;;;;;;;;;;23.50;79.10;;;;;;5096294;28;20013;-96
2022/08/22 21:22:51;;;;;;;;;;;23.50;77.80;;;;;;5097354;28;19946;-96
2022/08/22 21:25:25;;;;;;;;;;;23.40;78.70;;;;;;5098166;28;19946;-96
2022/08/22 21:27:53;;;;;;;;;;;23.40;79.30;;;;;;5097552;28;19947;-96
2022/08/22 21:30:22;;;;;;;;;;;23.20;80.30;;;;;;5100342;28;20002;-96
2022/08/22 21:32:49;;;;;;;;;;;23.30;80.10;;;;;;5118216;28;19957;-96
2022/08/22 21:35:33;;;;;;;;;;;23.30;79.20;;;;;;5100611;28;19945;-96
2022/08/22 21:38:03;;;;;;;;;;;23.30;79.80;;;;;;5118587;28;20002;-96
2022/08/22 21:40:38;;;;;;;;;;;23.40;78.40;;;;;;5100634;28;19950;-96
2022/08/22 21:43:11;;;;;;;;;;;23.40;77.80;;;;;;5117930;28;19940;-96
2022/08/22 21:45:42;;;;;;;;;;;23.50;77.80;;;;;;5099807;28;19996;-96
2022/08/22 21:48:27;;;;;;;;;;;23.50;77.60;;;;;;5099389;28;19953;-96
2022/08/22 21:50:54;;;;;;;;;;;23.50;77.90;;;;;;5117217;28;19961;-96
2022/08/22 21:53:29;;;;;;;;;;;23.50;77.80;;;;;;5117158;28;19989;-96
2022/08/22 21:56:14;;;;;;;;;;;23.50;77.70;;;;;;5098886;28;20467;-96
2022/08/22 21:58:49;;;;;;;;;;;23.50;77.50;;;;;;5098358;28;19957;-96
2022/08/22 22:01:29;;;;;;;;;;;23.50;76.20;;;;;;5116547;28;19947;-96
2022/08/22 22:04:00;;;;;;;;;;;23.50;75.10;;;;;;5115710;28;19950;-96
2022/08/22 22:06:32;;;;;;;;;;;23.60;74.50;;;;;;5098107;28;19922;-96
2022/08/22 22:08:59;;;;;;;;;;;23.60;73.90;;;;;;5098158;28;19950;-96
2022/08/22 22:11:26;;;;;;;;;;;23.50;73.90;;;;;;5097812;28;19961;-96
2022/08/22 22:13:57;;;;;;;;;;;23.60;74.10;;;;;;5096894;28;19946;-96
2022/08/22 22:16:25;;;;;;;;;;;23.50;74.20;;;;;;5097242;28;19952;-96
2022/08/22 22:18:53;;;;;;;;;;;23.40;74.30;;;;;;5097377;28;20012;-96
2022/08/22 22:21:25;;;;;;;;;;;23.40;74.30;;;;;;5114869;28;19941;-97
2022/08/22 22:23:55;;;;;;;;;;;23.40;74.10;;;;;;5097859;28;19991;-96
2022/08/22 22:26:22;;;;;;;;;;;23.30;73.90;;;;;;5099981;28;19952;-96
2022/08/22 22:28:57;;;;;;;;;;;23.30;74.40;;;;;;5116988;28;19954;-96
2022/08/22 22:31:27;;;;;;;;;;;23.30;75.00;;;;;;5096529;28;19970;-96
2022/08/22 22:34:09;;;;;;;;;;;23.20;75.40;;;;;;5096691;28;19954;-96
2022/08/22 22:36:38;;;;;;;;;;;23.10;75.50;;;;;;5097939;28;19961;-96
2022/08/22 22:39:11;;;;;;;;;;;23.10;76.40;;;;;;5096446;28;19928;-96
2022/08/22 22:41:43;;;;;;;;;;;23.00;76.30;;;;;;5097398;28;19945;-96
2022/08/22 22:44:11;;;;;;;;;;;22.90;75.50;;;;;;5096125;28;19947;-96
2022/08/22 22:46:38;;;;;;;;;;;23.00;75.20;;;;;;5096789;28;20003;-96
2022/08/22 22:49:06;;;;;;;;;;;23.00;75.40;;;;;;5096681;28;19925;-96
2022/08/22 22:51:34;;;;;;;;;;;23.00;75.00;;;;;;5096500;28;19981;-96
2022/08/22 22:54:03;;;;;;;;;;;23.00;75.10;;;;;;5095790;28;19940;-96
2022/08/22 22:56:33;;;;;;;;;;;23.00;75.20;;;;;;5096868;28;19965;-96
2022/08/22 22:59:04;;;;;;;;;;;23.00;75.30;;;;;;5095602;28;19948;-96
2022/08/22 23:01:36;;;;;;;;;;;23.00;75.30;;;;;;5092101;28;19949;-96
2022/08/22 23:04:06;;;;;;;;;;;23.10;75.20;;;;;;5096193;28;20006;-96
2022/08/22 23:06:38;;;;;;;;;;;22.90;75.10;;;;;;5097001;28;19944;-96
2022/08/22 23:09:07;;;;;;;;;;;22.80;75.80;;;;;;5110325;28;19950;-96
2022/08/22 23:11:34;;;;;;;;;;;22.60;76.60;;;;;;5095739;28;20025;-96
2022/08/22 23:14:04;;;;;;;;;;;22.50;77.50;;;;;;5096274;28;19934;-96
2022/08/22 23:16:33;;;;;;;;;;;22.50;77.50;;;;;;5096381;28;19947;-96
2022/08/22 23:19:06;;;;;;;;;;;22.40;78.10;;;;;;5096475;28;19944;-96
2022/08/22 23:21:36;;;;;;;;;;;22.40;78.50;;;;;;5096548;28;19979;-96
2022/08/22 23:24:03;;;;;;;;;;;22.30;78.20;;;;;;5096991;28;19943;-96
2022/08/22 23:26:31;;;;;;;;;;;22.30;78.30;;;;;;5096924;28;19942;-96
2022/08/22 23:28:59;;;;;;;;;;;22.20;78.90;;;;;;5092701;28;19952;-96
2022/08/22 23:31:48;;;;;;;;;;;22.10;79.40;;;;;;5105406;28;19972;-96
2022/08/22 23:34:16;;;;;;;;;;;22.10;80.00;;;;;;5097774;28;20009;-96
2022/08/22 23:36:45;;;;;;;;;;;22.10;79.80;;;;;;5097327;28;19972;-96
2022/08/22 23:39:13;;;;;;;;;;;22.00;80.20;;;;;;5098056;28;19953;-96
2022/08/22 23:41:41;;;;;;;;;;;22.00;80.00;;;;;;5116356;28;19936;-96